Quinlan, Texas
Current Conditions -  °F | °C
As of 11:15 AM on Thursday 30 Oct 2014 (Local Time) from KGVT Reporting Station
Clear Clear  
Wind Chill: 70°   Ceiling: Unl
Heat Index: 70°   Visibility: 10mi
Dew Point: 45°   Wind: 8mph
Humidity: 40%   Direction: 190°S
Pressure: 30.18"   Gusts: NA
Location:  32.91°N, 96.14°W
Report Text: KGVT 301615Z AUTO 19007KT 10SM CLR 21/07 A3018 RMK AO2
Loading
Personal Weather Stations






























Interactive Weather Map
Tropical Storm Tracking
New forecast layout! Learn more

10-Day Weather Forecast

Advertisements
Track Severe Weather on mobile